This is the latest recevied weather packets stored in our database for station/object LA5NNA. If no packets are shown the sender has not sent any weather packets the latest 10 day(s).
| Time | Temp. | Humidity | Pressure | Rain* | Wind** | Luminosity | Snow |
|---|---|---|---|---|---|---|---|
| 1777878909 | 6.67° C | 72% | 1008.5 hPa | 0 mm | - | 0 W/m² | - |
| 1777877109 | 6.11° C | 71% | 1008 hPa | 0 mm | - | 0 W/m² | - |
| 1777876508 | 6.11° C | 71% | 1007.9 hPa | 0 mm | - | 0 W/m² | - |
| 1777872009 | 4.44° C | 74% | 1006.8 hPa | 0 mm | - | 0 W/m² | - |
| 1777871109 | 4.44° C | 74% | 1006.8 hPa | 0 mm | - | 0 W/m² | - |
| 1777869609 | 4.44° C | 77% | 1006.5 hPa | 0 mm | - | 0 W/m² | - |
| 1777866308 | 4.44° C | 77% | 1006.4 hPa | 0 mm | - | 0 W/m² | - |
| 1777864509 | 5° C | 78% | 1006.2 hPa | 0 mm | - | 0 W/m² | - |
| 1777863308 | 5° C | 78% | 1006.1 hPa | 0 mm | - | 0 W/m² | - |
| 1777860908 | 5.56° C | 79% | 1005.8 hPa | 0 mm | - | 0 W/m² | - |
| 1777859108 | 5.56° C | 80% | 1005.7 hPa | 0 mm | - | 0 W/m² | - |
| 1777858508 | 5.56° C | 81% | 1005.8 hPa | 0 mm | - | 0 W/m² | - |
| 1777857608 | 5.56° C | 81% | 1005.6 hPa | 0 mm | - | 0 W/m² | - |
| 1777854908 | 6.11° C | 81% | 1005.5 hPa | 0 mm | - | 0 W/m² | - |
| 1777852508 | 6.67° C | 81% | 1005.6 hPa | 0 mm | - | 0 W/m² | - |
| 1777851011 | 6.67° C | 81% | 1005.5 hPa | 0 mm | - | 0 W/m² | - |
| 1777850408 | 6.67° C | 81% | 1005.5 hPa | 0 mm | - | 0 W/m² | - |
| 1777847707 | 7.22° C | 80% | 1005.6 hPa | 0 mm | - | 0 W/m² | - |
| 1777846808 | 7.22° C | 80% | 1005.6 hPa | 0 mm | - | 0 W/m² | - |
| 1777845908 | 7.78° C | 80% | 1005.8 hPa | 0 mm | - | 0 W/m² | - |
| 1777844707 | 7.78° C | 80% | 1005.7 hPa | 0 mm | - | 0 W/m² | - |
| 1777842011 | 8.33° C | 80% | 1005.8 hPa | 0 mm | - | 0 W/m² | - |
| 1777834507 | 8.89° C | 80% | 1006.3 hPa | 0 mm | - | 0 W/m² | - |
| 1777834207 | 8.89° C | 80% | 1006.3 hPa | 0 mm | - | 0 W/m² | - |
| 1777833907 | 8.89° C | 80% | 1006.2 hPa | 0 mm | - | 0 W/m² | - |
* Rain latest hour (hover to see other rain measurements)
** Current wind speed in m/s (hover to see current wind gust speed)